createdAt,value
2019-04-20T00:02:12.497Z,91.74
2019-04-20T00:04:35.772Z,92.73
2019-04-20T00:07:01.826Z,94.29
2019-04-20T00:09:31.316Z,93.75
2019-04-20T00:12:01.615Z,93.64
2019-04-20T00:14:24.244Z,92.86
2019-04-20T00:16:46.089Z,91.94
2019-04-20T00:19:16.189Z,92.36
2019-04-20T00:21:47.381Z,93.01
2019-04-20T00:24:10.979Z,94.05
2019-04-20T00:27:00.682Z,94.07
2019-04-20T00:29:17.760Z,93.50
2019-04-20T00:31:40.281Z,94.23
2019-04-20T00:33:59.465Z,93.95
2019-04-20T00:36:16.264Z,93.36
2019-04-20T00:38:48.581Z,93.84
2019-04-20T00:41:12.030Z,93.18
2019-04-20T00:43:37.570Z,92.29
2019-04-20T00:46:08.249Z,91.40
2019-04-20T00:48:37.508Z,91.47
2019-04-20T00:51:06.943Z,92.31
2019-04-20T00:53:30.414Z,91.08
2019-04-20T00:55:46.781Z,90.83
2019-04-20T00:58:20.096Z,91.73
2019-04-20T01:01:03.773Z,90.71
2019-04-20T01:03:23.239Z,89.68
2019-04-20T01:05:54.069Z,88.75
2019-04-20T01:08:01.976Z,89.69
2019-04-20T01:10:29.263Z,89.36
2019-04-20T01:12:58.087Z,89.08
2019-04-20T01:15:28.075Z,88.79
2019-04-20T01:17:43.682Z,88.40
2019-04-20T01:20:09.987Z,89.26
2019-04-20T01:22:44.523Z,89.45
2019-04-20T01:25:09.864Z,89.24
2019-04-20T01:27:43.875Z,90.00
2019-04-20T01:30:06.962Z,90.58
2019-04-20T01:32:33.424Z,91.42
2019-04-20T01:35:01.488Z,91.33
2019-04-20T01:37:27.447Z,89.97
2019-04-20T01:39:48.288Z,89.46
2019-04-20T01:42:06.830Z,89.08
2019-04-20T01:44:38.527Z,87.46
2019-04-20T01:47:03.168Z,87.59
2019-04-20T01:49:30.595Z,88.84
2019-04-20T01:52:06.212Z,87.30
2019-04-20T01:54:34.073Z,86.75
2019-04-20T01:56:54.705Z,86.79
2019-04-20T01:59:25.303Z,87.24
2019-04-20T02:01:39.672Z,85.76
2019-04-20T02:04:05.546Z,85.90
2019-04-20T02:06:31.909Z,86.69
2019-04-20T02:09:01.555Z,86.71
2019-04-20T02:11:29.478Z,87.17
2019-04-20T02:13:56.250Z,87.51
2019-04-20T02:16:24.337Z,87.29
2019-04-20T02:18:58.922Z,87.00
2019-04-20T02:21:24.154Z,87.40
2019-04-20T02:23:45.773Z,84.66
2019-04-20T02:26:00.897Z,83.75
2019-04-20T02:28:55.351Z,83.43
2019-04-20T02:31:33.051Z,83.13
2019-04-20T02:33:56.755Z,82.85
2019-04-20T02:36:27.607Z,83.56
2019-04-20T02:39:00.489Z,84.00
2019-04-20T02:41:11.584Z,81.34
2019-04-20T02:43:48.355Z,81.75
2019-04-20T02:45:57.684Z,82.66
2019-04-20T02:50:59.037Z,85.35
2019-04-20T02:53:32.946Z,85.32
2019-04-20T02:55:48.209Z,85.48
2019-04-20T03:00:51.034Z,84.93
2019-04-20T03:02:49.806Z,84.86
2019-04-20T03:05:14.886Z,84.42
2019-04-20T03:07:50.359Z,84.36
2019-04-20T03:10:13.628Z,84.89
2019-04-20T03:12:45.994Z,85.97
2019-04-20T03:15:00.747Z,86.37
2019-04-20T03:17:33.879Z,86.45
2019-04-20T03:19:55.048Z,86.30
2019-04-20T03:22:35.300Z,86.16
2019-04-20T03:24:54.397Z,86.64
2019-04-20T03:27:16.087Z,86.48
2019-04-20T03:29:47.953Z,86.99
2019-04-20T03:32:39.818Z,87.03
2019-04-20T03:37:08.450Z,85.64
2019-04-20T03:39:28.840Z,86.68
2019-04-20T03:41:41.825Z,87.17
2019-04-20T03:44:09.950Z,86.56
2019-04-20T03:46:37.543Z,87.40
2019-04-20T03:49:14.629Z,87.58
2019-04-20T03:51:40.106Z,87.25
2019-04-20T03:54:02.885Z,87.62
2019-04-20T03:56:36.528Z,87.03
2019-04-20T03:59:00.424Z,87.83
2019-04-20T04:01:35.872Z,87.06
2019-04-20T04:03:58.796Z,87.18
2019-04-20T04:06:10.466Z,87.67
2019-04-20T04:08:35.324Z,88.49
2019-04-20T04:11:12.383Z,89.39
2019-04-20T04:13:18.816Z,88.33
2019-04-20T04:15:52.037Z,86.73
2019-04-20T04:18:19.098Z,87.49
2019-04-20T04:20:45.507Z,86.91
2019-04-20T04:23:20.986Z,87.11
2019-04-20T04:25:48.338Z,87.68
2019-04-20T04:28:10.816Z,89.15
2019-04-20T04:30:37.707Z,89.05
2019-04-20T04:33:37.899Z,88.72
2019-04-20T04:35:26.730Z,88.63
2019-04-20T04:38:02.754Z,89.47
2019-04-20T04:40:37.526Z,90.11
2019-04-20T04:43:02.244Z,89.62
2019-04-20T04:45:07.312Z,88.73
2019-04-20T04:47:28.390Z,88.37
2019-04-20T04:49:59.990Z,88.47
2019-04-20T04:52:28.931Z,88.56
2019-04-20T04:54:53.764Z,87.49
2019-04-20T04:57:13.577Z,87.88
2019-04-20T04:59:38.656Z,88.43
2019-04-20T05:02:05.296Z,87.39
2019-04-20T05:05:01.097Z,87.23
2019-04-20T05:07:14.046Z,87.23
2019-04-20T05:09:23.955Z,84.83
2019-04-20T05:12:02.100Z,82.50
2019-04-20T05:14:23.557Z,81.49
2019-04-20T05:17:00.574Z,81.31
2019-04-20T05:19:29.572Z,80.69
2019-04-20T05:22:00.845Z,81.18
2019-04-20T05:24:17.953Z,80.43
2019-04-20T05:26:53.352Z,77.65
2019-04-20T05:29:03.223Z,76.50
2019-04-20T05:31:24.461Z,75.43
2019-04-20T05:34:08.518Z,75.74
2019-04-20T05:36:36.916Z,77.15
2019-04-20T05:39:07.095Z,77.36
2019-04-20T05:41:21.628Z,75.30
2019-04-20T05:43:49.675Z,76.20
2019-04-20T05:46:21.187Z,74.60
2019-04-20T05:48:46.284Z,72.71
2019-04-20T05:51:12.145Z,72.50
2019-04-20T05:53:38.782Z,72.63
2019-04-20T05:56:02.903Z,71.01
2019-04-20T05:58:34.046Z,70.67
2019-04-20T06:01:01.511Z,68.90
2019-04-20T06:03:20.405Z,66.79
2019-04-20T06:06:00.621Z,65.37
2019-04-20T06:08:26.314Z,65.90
2019-04-20T06:10:45.208Z,65.90
2019-04-20T06:13:10.504Z,61.67
2019-04-20T06:15:30.549Z,60.28
2019-04-20T06:17:58.403Z,61.13
2019-04-20T06:20:31.854Z,58.71
2019-04-20T06:23:00.876Z,59.10
2019-04-20T06:25:40.910Z,58.75
2019-04-20T06:27:48.573Z,58.81
2019-04-20T06:30:11.009Z,61.00
2019-04-20T06:32:38.694Z,61.37
2019-04-20T06:35:09.300Z,60.53
2019-04-20T06:40:37.298Z,59.34
2019-04-20T06:42:48.332Z,58.59
2019-04-20T06:45:09.893Z,56.30
2019-04-20T06:47:44.152Z,55.61
2019-04-20T06:50:07.161Z,52.87
2019-04-20T06:52:34.070Z,54.04
2019-04-20T06:54:54.119Z,53.83
2019-04-20T06:57:25.639Z,50.26
2019-04-20T06:59:45.850Z,49.57
2019-04-20T07:02:22.199Z,49.84
2019-04-20T07:07:11.807Z,48.74
2019-04-20T07:11:57.993Z,46.88
2019-04-20T07:14:12.070Z,49.04
2019-04-20T07:16:53.081Z,47.61
2019-04-20T07:19:21.372Z,46.13
2019-04-20T07:21:53.603Z,47.75
2019-04-20T07:24:17.327Z,47.81
2019-04-20T07:26:44.605Z,47.26
2019-04-20T07:29:10.124Z,46.40
2019-04-20T07:31:30.837Z,45.33
2019-04-20T07:33:59.018Z,45.82
2019-04-20T07:36:24.448Z,47.65
2019-04-20T07:38:55.250Z,47.67
2019-04-20T07:41:24.882Z,46.83
2019-04-20T07:43:52.975Z,45.27
2019-04-20T07:46:10.376Z,43.96
2019-04-20T07:48:30.832Z,42.80
2019-04-20T07:50:53.364Z,41.97
2019-04-20T07:53:20.389Z,39.96
2019-04-20T07:55:54.113Z,42.82
2019-04-20T07:58:12.195Z,43.07
2019-04-20T08:00:58.669Z,43.14
2019-04-20T08:03:20.157Z,44.33
2019-04-20T08:05:31.079Z,41.37
2019-04-20T08:07:53.878Z,41.62
2019-04-20T08:10:29.939Z,40.83
2019-04-20T08:13:02.179Z,41.89
2019-04-20T08:15:36.789Z,40.71
2019-04-20T08:17:56.388Z,40.23
2019-04-20T08:20:17.122Z,39.77
2019-04-20T08:22:42.147Z,39.37
2019-04-20T08:25:04.621Z,37.73
2019-04-20T08:27:16.647Z,36.54
2019-04-20T08:29:54.241Z,36.88
2019-04-20T08:32:28.299Z,36.65
2019-04-20T08:34:59.224Z,38.12
2019-04-20T08:37:19.304Z,38.47
2019-04-20T08:42:13.304Z,37.71
2019-04-20T08:44:58.876Z,36.67
2019-04-20T08:47:12.255Z,36.18
2019-04-20T08:49:37.286Z,36.11
2019-04-20T08:54:22.094Z,34.76
2019-04-20T08:56:39.059Z,34.78
2019-04-20T08:58:57.570Z,34.69
2019-04-20T09:01:27.365Z,34.30
2019-04-20T09:03:58.958Z,35.61
2019-04-20T09:06:32.342Z,36.85
2019-04-20T09:08:53.872Z,36.89
2019-04-20T09:11:24.497Z,36.34
2019-04-20T09:13:43.633Z,35.72
2019-04-20T09:16:02.099Z,36.55
2019-04-20T09:18:36.675Z,36.14
2019-04-20T09:21:02.415Z,35.32
2019-04-20T09:23:36.809Z,36.22
2019-04-20T09:26:05.556Z,37.09
2019-04-20T09:28:23.823Z,36.08
2019-04-20T09:30:50.488Z,33.84
2019-04-20T09:33:22.578Z,34.23
2019-04-20T09:35:48.667Z,35.15
2019-04-20T09:38:14.437Z,33.92
2019-04-20T09:40:57.238Z,35.07
2019-04-20T09:42:52.406Z,34.26
2019-04-20T09:45:27.440Z,34.45
2019-04-20T09:47:49.914Z,33.80
2019-04-20T09:50:29.333Z,34.44
2019-04-20T09:52:51.737Z,33.69
2019-04-20T09:55:18.572Z,33.46
2019-04-20T09:57:50.228Z,34.35
2019-04-20T10:00:13.355Z,34.40
2019-04-20T10:02:27.591Z,35.00
2019-04-20T10:04:49.500Z,35.83
2019-04-20T10:07:19.519Z,36.56
2019-04-20T10:09:45.019Z,38.15
2019-04-20T10:12:08.285Z,37.23
2019-04-20T10:14:35.198Z,36.52
2019-04-20T10:17:02.154Z,37.01
2019-04-20T10:19:33.560Z,34.87
2019-04-20T10:21:54.779Z,35.15
2019-04-20T10:24:20.890Z,33.74
2019-04-20T10:26:46.195Z,32.76
2019-04-20T10:29:13.247Z,33.46
2019-04-20T10:31:46.503Z,33.52
2019-04-20T10:34:05.354Z,35.73
2019-04-20T10:36:31.670Z,35.49
2019-04-20T10:38:58.259Z,34.17
2019-04-20T10:41:36.067Z,33.15
2019-04-20T10:43:51.094Z,33.62
2019-04-20T10:46:17.313Z,34.69
2019-04-20T10:48:48.047Z,34.54
2019-04-20T10:51:10.683Z,35.73
2019-04-20T10:53:36.691Z,36.96
2019-04-20T10:56:03.434Z,37.63
2019-04-20T10:58:29.593Z,37.02
2019-04-20T11:00:55.727Z,38.29
2019-04-20T11:03:22.708Z,38.21
2019-04-20T11:05:48.804Z,37.96
2019-04-20T11:08:14.836Z,36.75
2019-04-20T11:10:50.831Z,36.21
2019-04-20T11:13:07.395Z,37.16
2019-04-20T11:15:32.860Z,35.54
2019-04-20T11:17:59.616Z,35.52
2019-04-20T11:20:25.654Z,34.78
2019-04-20T11:22:52.654Z,33.50
2019-04-20T11:25:18.282Z,32.86
2019-04-20T11:27:45.927Z,34.27
2019-04-20T11:30:12.039Z,34.60
2019-04-20T11:32:37.974Z,35.52
2019-04-20T11:35:11.416Z,34.66
2019-04-20T11:37:31.035Z,32.87
2019-04-20T11:39:57.045Z,33.78
2019-04-20T11:42:23.611Z,35.54
2019-04-20T11:44:48.895Z,34.83
2019-04-20T11:47:15.203Z,34.77
2019-04-20T11:49:41.677Z,36.22
2019-04-20T11:52:07.866Z,35.84
2019-04-20T11:54:34.543Z,36.32
2019-04-20T11:57:01.579Z,37.04
2019-04-20T11:59:27.354Z,37.22
2019-04-20T12:02:00.095Z,36.91
2019-04-20T12:04:35.156Z,36.02
2019-04-20T12:06:46.596Z,36.60
2019-04-20T12:09:12.931Z,36.71
2019-04-20T12:11:54.933Z,36.79
2019-04-20T12:14:04.776Z,36.74
2019-04-20T12:16:31.980Z,36.20
2019-04-20T12:18:57.347Z,35.31
2019-04-20T12:21:23.697Z,34.77
2019-04-20T12:23:50.003Z,35.22
2019-04-20T12:26:16.331Z,34.77
2019-04-20T12:28:43.363Z,35.87
2019-04-20T12:31:13.705Z,36.03
2019-04-20T12:33:36.632Z,36.81
2019-04-20T12:36:02.504Z,37.90
2019-04-20T12:38:27.935Z,37.38
2019-04-20T12:40:54.242Z,37.94
2019-04-20T12:43:20.573Z,37.35
2019-04-20T12:45:47.695Z,37.17
2019-04-20T12:48:13.542Z,35.74
2019-04-20T12:50:39.667Z,35.95
2019-04-20T12:53:06.496Z,37.97
2019-04-20T12:55:32.604Z,39.40
2019-04-20T12:57:58.708Z,40.01
2019-04-20T13:00:25.646Z,40.14
2019-04-20T13:02:51.543Z,40.52
2019-04-20T13:05:17.626Z,40.03
2019-04-20T13:07:47.816Z,40.81
2019-04-20T13:10:11.471Z,40.29
2019-04-20T13:12:36.577Z,40.04
2019-04-20T13:15:02.904Z,41.19
2019-04-20T13:17:30.364Z,40.51
2019-04-20T13:19:55.531Z,39.82
2019-04-20T13:22:22.921Z,39.46
2019-04-20T13:24:49.287Z,38.59
2019-04-20T13:27:14.481Z,38.64
2019-04-20T13:29:40.788Z,38.61
2019-04-20T13:32:07.696Z,38.89
2019-04-20T13:34:33.955Z,39.40
2019-04-20T13:37:00.081Z,39.63
2019-04-20T13:39:26.855Z,39.26
2019-04-20T13:42:04.474Z,39.35
2019-04-20T13:44:19.977Z,39.89
2019-04-20T13:46:45.114Z,39.97
2019-04-20T13:49:11.367Z,39.81
2019-04-20T13:51:38.969Z,40.61
2019-04-20T13:54:07.390Z,40.65
2019-04-20T13:56:30.326Z,40.34
2019-04-20T13:58:56.887Z,40.07
2019-04-20T14:01:23.021Z,39.66
2019-04-20T14:03:50.276Z,39.29
2019-04-20T14:06:16.601Z,38.59
2019-04-20T14:08:43.159Z,38.42
2019-04-20T14:11:09.450Z,38.26
2019-04-20T14:13:38.122Z,39.28
2019-04-20T14:16:00.946Z,39.70
2019-04-20T14:18:27.192Z,38.91
2019-04-20T14:20:54.108Z,39.06
2019-04-20T14:23:21.064Z,39.13
2019-04-20T14:25:47.045Z,39.10
2019-04-20T14:28:13.233Z,39.19
2019-04-20T14:30:40.105Z,40.04
2019-04-20T14:33:05.283Z,40.96
2019-04-20T14:35:32.647Z,39.96
2019-04-20T14:37:57.857Z,40.26
2019-04-20T14:40:24.188Z,40.44
2019-04-20T14:42:53.367Z,40.24
2019-04-20T14:45:16.818Z,41.04
2019-04-20T14:47:43.804Z,40.64
2019-04-20T14:50:09.851Z,40.37
2019-04-20T14:52:35.769Z,40.73
2019-04-20T14:55:02.098Z,41.07
2019-04-20T14:57:29.674Z,40.86
2019-04-20T14:59:55.889Z,40.57
2019-04-20T15:02:21.699Z,40.98
2019-04-20T15:04:47.478Z,39.64
2019-04-20T15:07:14.912Z,39.65
2019-04-20T15:09:40.655Z,39.06
2019-04-20T15:12:06.758Z,38.64
2019-04-20T15:14:32.660Z,39.24
2019-04-20T15:16:59.026Z,39.79
2019-04-20T15:19:25.429Z,39.96
2019-04-20T15:21:51.636Z,40.56
2019-04-20T15:24:17.944Z,40.65
2019-04-20T15:26:44.545Z,40.61
2019-04-20T15:29:10.585Z,40.30
2019-04-20T15:31:38.309Z,40.64
2019-04-20T15:34:04.510Z,40.54
2019-04-20T15:36:29.662Z,40.28
2019-04-20T15:38:56.824Z,40.37
2019-04-20T15:41:23.157Z,40.26
2019-04-20T15:43:49.121Z,40.87
2019-04-20T15:46:15.302Z,40.08
2019-04-20T15:48:41.786Z,38.85
2019-04-20T15:51:08.033Z,38.91
2019-04-20T15:53:33.888Z,39.09
2019-04-20T15:56:03.268Z,39.62
2019-04-20T15:58:26.558Z,39.57
2019-04-20T16:00:54.503Z,39.54
2019-04-20T16:03:19.232Z,39.58
2019-04-20T16:05:45.525Z,40.27
2019-04-20T16:08:12.277Z,40.48
2019-04-20T16:10:39.152Z,40.65
2019-04-20T16:13:13.476Z,40.81
2019-04-20T16:15:31.687Z,40.66
2019-04-20T16:17:57.119Z,41.11
2019-04-20T16:20:25.312Z,41.31
2019-04-20T16:22:49.761Z,41.59
2019-04-20T16:25:17.231Z,41.95
2019-04-20T16:27:43.548Z,42.26
2019-04-20T16:30:09.676Z,42.59
2019-04-20T16:32:36.445Z,42.71
2019-04-20T16:35:02.753Z,42.89
2019-04-20T16:37:28.579Z,43.34
2019-04-20T16:39:54.664Z,43.17
2019-04-20T16:42:20.357Z,43.38
2019-04-20T16:44:53.533Z,43.63
2019-04-20T16:47:16.677Z,43.32
2019-04-20T16:49:43.204Z,43.62
2019-04-20T16:52:10.331Z,43.87
2019-04-20T16:54:35.745Z,44.25
2019-04-20T16:57:02.618Z,44.70
2019-04-20T16:59:28.370Z,44.91
2019-04-20T17:01:56.057Z,44.83
2019-04-20T17:04:24.027Z,44.90
2019-04-20T17:06:47.767Z,44.93
2019-04-20T17:09:13.839Z,44.87
2019-04-20T17:11:39.950Z,45.29
2019-04-20T17:14:06.638Z,45.72
2019-04-20T17:16:33.563Z,45.97
2019-04-20T17:18:59.619Z,45.94
2019-04-20T17:21:28.558Z,46.00
2019-04-20T17:23:51.565Z,45.82
2019-04-20T17:26:18.848Z,45.36
2019-04-20T17:28:44.875Z,45.69
2019-04-20T17:31:11.575Z,45.80
2019-04-20T17:33:50.802Z,46.16
2019-04-20T17:36:10.998Z,45.88
2019-04-20T17:38:36.734Z,46.39
2019-04-20T17:41:13.772Z,46.49
2019-04-20T17:43:31.269Z,46.75
2019-04-20T17:45:57.841Z,46.66
2019-04-20T17:48:28.313Z,47.26
2019-04-20T17:51:05.066Z,47.90
2019-04-20T17:53:22.898Z,48.01
2019-04-20T17:55:40.676Z,48.35
2019-04-20T17:58:01.576Z,48.68
2019-04-20T18:00:29.026Z,48.98
2019-04-20T18:03:10.058Z,49.10
2019-04-20T18:05:39.457Z,49.37
2019-04-20T18:08:10.231Z,49.75
2019-04-20T18:10:31.701Z,50.04
2019-04-20T18:12:44.554Z,50.16
2019-04-20T18:15:24.286Z,49.91
2019-04-20T18:17:45.412Z,50.20
2019-04-20T18:19:57.123Z,50.56
2019-04-20T18:22:23.620Z,50.83
2019-04-20T18:25:16.380Z,51.06
2019-04-20T18:27:37.356Z,50.93
2019-04-20T18:30:03.775Z,51.42
2019-04-20T18:32:09.359Z,51.43
2019-04-20T18:34:36.244Z,51.42
2019-04-20T18:37:07.728Z,51.52
2019-04-20T18:39:35.988Z,52.04
2019-04-20T18:42:01.142Z,51.97
2019-04-20T18:44:27.694Z,52.42
2019-04-20T18:47:15.563Z,52.43
2019-04-20T18:49:29.390Z,52.71
2019-04-20T18:51:39.822Z,52.92
2019-04-20T18:54:13.682Z,53.09
2019-04-20T18:56:38.305Z,53.25
2019-04-20T18:58:59.000Z,52.66
2019-04-20T19:01:31.889Z,52.63
2019-04-20T19:03:52.325Z,52.81
2019-04-20T19:06:18.043Z,52.18
2019-04-20T19:08:48.553Z,51.90
2019-04-20T19:11:15.045Z,52.26
2019-04-20T19:13:40.190Z,52.76
2019-04-20T19:16:15.322Z,53.29
2019-04-20T19:18:45.294Z,53.51
2019-04-20T19:20:55.426Z,53.66
2019-04-20T19:23:22.862Z,53.65
2019-04-20T19:25:48.093Z,54.12
2019-04-20T19:28:19.480Z,54.12
2019-04-20T19:30:50.216Z,54.53
2019-04-20T19:33:24.734Z,54.68
2019-04-20T19:35:41.609Z,54.80
2019-04-20T19:38:09.619Z,55.29
2019-04-20T19:40:38.595Z,55.04
2019-04-20T19:43:03.974Z,55.00
2019-04-20T19:45:42.586Z,54.92
2019-04-20T19:48:05.040Z,55.53
2019-04-20T19:50:35.532Z,55.87
2019-04-20T19:53:05.713Z,55.60
2019-04-20T19:55:20.933Z,56.52
2019-04-20T19:57:45.344Z,56.18
2019-04-20T19:59:58.177Z,55.63
2019-04-20T20:02:23.709Z,56.21
2019-04-20T20:04:54.704Z,56.57
2019-04-20T20:07:24.694Z,56.77
2019-04-20T20:09:52.501Z,56.18
2019-04-20T20:12:12.551Z,56.89
2019-04-20T20:14:39.719Z,57.91
2019-04-20T20:17:25.154Z,57.75
2019-04-20T20:19:45.875Z,58.98
2019-04-20T20:22:06.902Z,59.20
2019-04-20T20:24:21.308Z,59.34
2019-04-20T20:26:53.445Z,59.70
2019-04-20T20:29:23.168Z,59.71
2019-04-20T20:31:55.375Z,60.46
2019-04-20T20:34:15.792Z,60.73
2019-04-20T20:36:44.024Z,60.42
2019-04-20T20:39:04.654Z,61.54
2019-04-20T20:41:28.971Z,61.26
2019-04-20T20:44:00.121Z,61.58
2019-04-20T20:46:27.181Z,61.96
2019-04-20T20:49:04.933Z,62.41
2019-04-20T20:51:35.742Z,62.98
2019-04-20T20:53:48.431Z,63.03
2019-04-20T20:56:11.977Z,63.51
2019-04-20T20:58:43.766Z,64.19
2019-04-20T21:01:04.355Z,64.62
2019-04-20T21:03:29.231Z,65.07
2019-04-20T21:05:47.422Z,65.67
2019-04-20T21:08:13.596Z,65.85
2019-04-20T21:10:42.085Z,65.98
2019-04-20T21:13:09.999Z,66.21
2019-04-20T21:15:33.369Z,66.43
2019-04-20T21:18:20.971Z,66.68
2019-04-20T21:20:46.454Z,67.16
2019-04-20T21:23:07.224Z,67.12
2019-04-20T21:25:18.993Z,67.43
2019-04-20T21:27:44.537Z,67.47
2019-04-20T21:30:16.817Z,67.88
2019-04-20T21:32:42.189Z,68.05
2019-04-20T21:35:07.308Z,68.14
2019-04-20T21:37:30.599Z,68.45
2019-04-20T21:39:59.666Z,68.73
2019-04-20T21:42:25.248Z,70.04
2019-04-20T21:44:50.840Z,69.93
2019-04-20T21:47:22.508Z,69.28
2019-04-20T21:49:51.924Z,69.65
2019-04-20T21:52:18.317Z,70.12
2019-04-20T21:54:34.153Z,70.34
2019-04-20T21:57:03.841Z,70.08
2019-04-20T21:59:34.439Z,70.28
2019-04-20T22:02:01.277Z,70.53
2019-04-20T22:04:22.463Z,70.66
2019-04-20T22:06:46.538Z,71.14
2019-04-20T22:09:12.709Z,71.65
2019-04-20T22:11:38.017Z,71.24
2019-04-20T22:14:12.897Z,71.62
2019-04-20T22:16:37.063Z,72.49
2019-04-20T22:19:14.567Z,72.70
2019-04-20T22:21:37.339Z,72.67
2019-04-20T22:24:05.760Z,72.23
2019-04-20T22:26:26.595Z,71.80
2019-04-20T22:28:42.459Z,72.34
2019-04-20T22:31:09.581Z,72.40
2019-04-20T22:33:38.089Z,72.83
2019-04-20T22:36:04.506Z,73.08
2019-04-20T22:38:28.805Z,72.77
2019-04-20T22:40:56.584Z,73.18
2019-04-20T22:43:27.266Z,72.83
2019-04-20T22:45:50.623Z,72.33
2019-04-20T22:48:15.915Z,72.87
2019-04-20T22:51:03.910Z,73.13
2019-04-20T22:53:24.516Z,73.38
2019-04-20T22:55:59.953Z,72.80
2019-04-20T22:58:04.585Z,73.29
2019-04-20T23:00:36.506Z,73.55
2019-04-20T23:02:50.951Z,73.18
2019-04-20T23:05:18.463Z,72.96
2019-04-20T23:07:44.361Z,72.79
2019-04-20T23:10:09.777Z,73.39
2019-04-20T23:12:40.044Z,73.42
2019-04-20T23:15:02.833Z,73.85
2019-04-20T23:17:35.916Z,74.23
2019-04-20T23:19:59.236Z,74.36
2019-04-20T23:22:22.678Z,73.95
2019-04-20T23:24:48.976Z,74.69
2019-04-20T23:27:18.854Z,74.15
2019-04-20T23:29:41.739Z,74.42
2019-04-20T23:32:10.384Z,74.64
2019-04-20T23:34:34.605Z,75.27
2019-04-20T23:36:59.300Z,74.53
2019-04-20T23:39:30.135Z,74.58
2019-04-20T23:41:58.066Z,74.68
2019-04-20T23:44:18.964Z,74.93
2019-04-20T23:46:45.369Z,75.23
2019-04-20T23:49:18.132Z,75.04
2019-04-20T23:52:00.687Z,74.85
2019-04-20T23:54:12.339Z,75.08
2019-04-20T23:56:29.974Z,75.76
2019-04-20T23:58:58.104Z,74.98
